Terminal Aerodrome Forecast
Issued by NWS Houston/Galveston, TX

Home | Current Version | Previous Version | Text Only | Print | Product List | Glossary On
Versions: 1 2 3 4 5 6 7 8 9 10 11 12 13 14 15 16 17 18 19 20 21 22 23 24 25 26 27 28 29 30 31 32 33
000
FTUS44 KHGX 291740
TAFCLL
TAF
KCLL 291740Z 2918/3018 19017G23KT P6SM SKC
     FM300300 18013KT P6SM SCT250
     FM300600 17009KT P6SM SCT015
     FM301100 19005KT P6SM OVC015
     FM301600 20009KT P6SM BKN025=

USA.gov is the U.S. government's official web portal to all federal, state and local government web resources and services.